Terminal Aerodrome Forecast
Issued by NWS

Home | Current Version | Previous Version | Text Only | Print | Product List | Glossary On
Versions: 1 2 3 4 5 6 7 8 9 10 11 12 13 14 15 16 17 18
000
FTAK31 PAJN 280500
TAFAKT
TAF
PAKT 280520Z 2806/2906 13013KT 6SM -RA BR SCT005 BKN015 OVC025
      TEMPO 2806/2810 3SM -RA BR BKN005 OVC015
     FM281500 13010KT 6SM -SHRA BR FEW005 BKN015 OVC025
      AMD LTD TO CLD VIS AND WIND 2806/2815=

USA.gov is the U.S. government's official web portal to all federal, state and local government web resources and services.